sensor_id;sensor_type;location;lat;lon;timestamp;pressure;altitude;pressure_sealevel;temperature;humidity
83363;BME280;73275;50.882;5.984;2023-12-28T00:01:23;99937.31;;;8.92;76.64
83363;BME280;73275;50.882;5.984;2023-12-28T00:03:49;99946.84;;;9.00;76.19
83363;BME280;73275;50.882;5.984;2023-12-28T00:06:14;99938.50;;;9.01;75.96
83363;BME280;73275;50.882;5.984;2023-12-28T00:08:40;99954.47;;;9.05;75.71
83363;BME280;73275;50.882;5.984;2023-12-28T00:11:06;99954.47;;;9.08;75.69
83363;BME280;73275;50.882;5.984;2023-12-28T00:13:31;99936.31;;;9.17;74.35
83363;BME280;73275;50.882;5.984;2023-12-28T00:15:56;99936.75;;;9.26;73.57
83363;BME280;73275;50.882;5.984;2023-12-28T00:18:22;99943.97;;;9.29;74.05
83363;BME280;73275;50.882;5.984;2023-12-28T00:20:47;99950.84;;;9.34;73.10
83363;BME280;73275;50.882;5.984;2023-12-28T00:23:12;99961.50;;;9.34;73.31
83363;BME280;73275;50.882;5.984;2023-12-28T00:25:38;99959.59;;;9.38;73.50
83363;BME280;73275;50.882;5.984;2023-12-28T00:28:03;99959.22;;;9.39;73.79
83363;BME280;73275;50.882;5.984;2023-12-28T00:30:29;99960.38;;;9.42;73.63
83363;BME280;73275;50.882;5.984;2023-12-28T00:32:54;99955.06;;;9.45;74.08
83363;BME280;73275;50.882;5.984;2023-12-28T00:35:20;99958.50;;;9.42;73.78
83363;BME280;73275;50.882;5.984;2023-12-28T00:37:45;99963.06;;;9.49;73.77
83363;BME280;73275;50.882;5.984;2023-12-28T00:40:10;99961.53;;;9.48;74.54
83363;BME280;73275;50.882;5.984;2023-12-28T00:42:36;99950.53;;;9.46;74.14
83363;BME280;73275;50.882;5.984;2023-12-28T00:45:01;99956.22;;;9.48;74.08
83363;BME280;73275;50.882;5.984;2023-12-28T00:47:27;99947.50;;;9.47;74.11
83363;BME280;73275;50.882;5.984;2023-12-28T00:49:53;99964.19;;;9.44;74.58
83363;BME280;73275;50.882;5.984;2023-12-28T00:52:18;99978.66;;;9.50;75.23
83363;BME280;73275;50.882;5.984;2023-12-28T00:54:43;99964.22;;;9.51;75.82
83363;BME280;73275;50.882;5.984;2023-12-28T00:57:09;99972.25;;;9.62;75.12
83363;BME280;73275;50.882;5.984;2023-12-28T00:59:34;99984.41;;;9.63;75.96
83363;BME280;73275;50.882;5.984;2023-12-28T01:02:00;99977.22;;;9.70;76.29
83363;BME280;73275;50.882;5.984;2023-12-28T01:04:25;99975.34;;;9.74;75.76
83363;BME280;73275;50.882;5.984;2023-12-28T01:06:51;99977.59;;;9.72;76.52
83363;BME280;73275;50.882;5.984;2023-12-28T01:09:17;99976.88;;;9.75;76.21
83363;BME280;73275;50.882;5.984;2023-12-28T01:11:42;99963.94;;;9.77;76.32
83363;BME280;73275;50.882;5.984;2023-12-28T01:14:08;99973.44;;;9.71;76.02
83363;BME280;73275;50.882;5.984;2023-12-28T01:16:33;99963.16;;;9.70;76.60
83363;BME280;73275;50.882;5.984;2023-12-28T01:18:58;99972.66;;;9.67;77.12
83363;BME280;73275;50.882;5.984;2023-12-28T01:21:24;99993.16;;;9.63;77.21
83363;BME280;73275;50.882;5.984;2023-12-28T01:23:54;99992.00;;;9.61;76.60
83363;BME280;73275;50.882;5.984;2023-12-28T01:26:19;99985.53;;;9.58;76.94
83363;BME280;73275;50.882;5.984;2023-12-28T01:28:45;99976.78;;;9.54;77.10
83363;BME280;73275;50.882;5.984;2023-12-28T01:31:10;99989.69;;;9.52;77.69
83363;BME280;73275;50.882;5.984;2023-12-28T01:33:36;99996.91;;;9.52;78.39
83363;BME280;73275;50.882;5.984;2023-12-28T01:36:02;99980.94;;;9.48;78.18
83363;BME280;73275;50.882;5.984;2023-12-28T01:38:27;100002.94;;;9.45;78.98
83363;BME280;73275;50.882;5.984;2023-12-28T01:40:53;99996.44;;;9.39;78.97
83363;BME280;73275;50.882;5.984;2023-12-28T01:43:18;100005.56;;;9.42;78.67
83363;BME280;73275;50.882;5.984;2023-12-28T01:45:44;99999.09;;;9.39;78.81
83363;BME280;73275;50.882;5.984;2023-12-28T01:48:10;100010.50;;;9.36;79.77
83363;BME280;73275;50.882;5.984;2023-12-28T01:50:37;99993.75;;;9.32;79.08
83363;BME280;73275;50.882;5.984;2023-12-28T01:53:03;100016.91;;;9.32;79.35
83363;BME280;73275;50.882;5.984;2023-12-28T01:55:29;100015.41;;;9.34;79.72
83363;BME280;73275;50.882;5.984;2023-12-28T01:57:57;100025.25;;;9.30;79.48
83363;BME280;73275;50.882;5.984;2023-12-28T02:00:24;100017.66;;;9.29;79.83
83363;BME280;73275;50.882;5.984;2023-12-28T02:02:50;100014.22;;;9.28;80.12
83363;BME280;73275;50.882;5.984;2023-12-28T02:05:16;100006.22;;;9.21;80.68
83363;BME280;73275;50.882;5.984;2023-12-28T02:07:42;100002.41;;;9.19;80.35
83363;BME280;73275;50.882;5.984;2023-12-28T02:10:08;100008.06;;;9.14;80.83
83363;BME280;73275;50.882;5.984;2023-12-28T02:12:33;100007.28;;;9.13;80.72
83363;BME280;73275;50.882;5.984;2023-12-28T02:15:02;99997.00;;;9.08;81.46
83363;BME280;73275;50.882;5.984;2023-12-28T02:17:47;100008.38;;;9.05;81.10
83363;BME280;73275;50.882;5.984;2023-12-28T02:20:17;100023.56;;;9.05;81.31
83363;BME280;73275;50.882;5.984;2023-12-28T02:22:45;100001.16;;;9.06;80.95
83363;BME280;73275;50.882;5.984;2023-12-28T02:25:11;100002.66;;;9.03;81.51
83363;BME280;73275;50.882;5.984;2023-12-28T02:27:47;100006.88;;;9.04;81.89
83363;BME280;73275;50.882;5.984;2023-12-28T02:30:15;99996.97;;;9.05;81.74
83363;BME280;73275;50.882;5.984;2023-12-28T02:32:54;99996.97;;;9.01;82.03
83363;BME280;73275;50.882;5.984;2023-12-28T02:35:25;99996.22;;;9.04;81.74
83363;BME280;73275;50.882;5.984;2023-12-28T02:37:56;99999.63;;;9.05;81.82
83363;BME280;73275;50.882;5.984;2023-12-28T02:40:24;100013.25;;;9.00;82.08
83363;BME280;73275;50.882;5.984;2023-12-28T02:42:51;100000.41;;;9.05;82.07
83363;BME280;73275;50.882;5.984;2023-12-28T02:45:18;100009.09;;;9.02;82.28
83363;BME280;73275;50.882;5.984;2023-12-28T02:47:46;99984.38;;;8.95;81.94
83363;BME280;73275;50.882;5.984;2023-12-28T02:50:12;99993.47;;;8.94;82.10
83363;BME280;73275;50.882;5.984;2023-12-28T02:52:38;99963.84;;;8.88;82.12
83363;BME280;73275;50.882;5.984;2023-12-28T02:55:07;99974.47;;;8.88;82.05
83363;BME280;73275;50.882;5.984;2023-12-28T02:57:38;99971.81;;;8.88;82.23
83363;BME280;73275;50.882;5.984;2023-12-28T03:00:13;99966.47;;;8.85;82.22
83363;BME280;73275;50.882;5.984;2023-12-28T03:02:51;99983.66;;;8.98;82.38
83363;BME280;73275;50.882;5.984;2023-12-28T03:05:23;99976.78;;;8.93;81.66
83363;BME280;73275;50.882;5.984;2023-12-28T03:07:51;99979.84;;;8.95;82.14
83363;BME280;73275;50.882;5.984;2023-12-28T03:10:23;99984.34;;;8.91;82.73
83363;BME280;73275;50.882;5.984;2023-12-28T03:12:58;99959.75;;;8.98;82.09
83363;BME280;73275;50.882;5.984;2023-12-28T03:15:26;99979.47;;;8.97;81.87
83363;BME280;73275;50.882;5.984;2023-12-28T03:17:52;99984.78;;;8.93;81.93
83363;BME280;73275;50.882;5.984;2023-12-28T03:20:20;99977.91;;;8.92;81.88
83363;BME280;73275;50.882;5.984;2023-12-28T03:22:48;99983.28;;;8.96;81.81
83363;BME280;73275;50.882;5.984;2023-12-28T03:25:28;100002.28;;;9.01;82.28
83363;BME280;73275;50.882;5.984;2023-12-28T03:27:56;99985.16;;;8.99;82.05
83363;BME280;73275;50.882;5.984;2023-12-28T03:30:23;99975.66;;;8.94;82.28
83363;BME280;73275;50.882;5.984;2023-12-28T03:32:51;99982.53;;;9.02;81.76
83363;BME280;73275;50.882;5.984;2023-12-28T03:35:19;99983.31;;;9.03;82.11
83363;BME280;73275;50.882;5.984;2023-12-28T03:37:46;99968.81;;;8.93;82.09
83363;BME280;73275;50.882;5.984;2023-12-28T03:40:12;99988.53;;;8.92;82.33
83363;BME280;73275;50.882;5.984;2023-12-28T03:42:51;99971.13;;;8.98;82.00
83363;BME280;73275;50.882;5.984;2023-12-28T03:45:17;99966.91;;;8.90;82.21
83363;BME280;73275;50.882;5.984;2023-12-28T03:47:45;99965.38;;;8.89;82.48
83363;BME280;73275;50.882;5.984;2023-12-28T03:50:11;99973.38;;;8.96;82.64
83363;BME280;73275;50.882;5.984;2023-12-28T03:52:37;99979.91;;;9.06;82.28
83363;BME280;73275;50.882;5.984;2023-12-28T03:55:06;99976.03;;;8.96;82.20
83363;BME280;73275;50.882;5.984;2023-12-28T03:58:04;99949.47;;;8.96;81.66
83363;BME280;73275;50.882;5.984;2023-12-28T04:00:32;99947.19;;;8.98;82.35
83363;BME280;73275;50.882;5.984;2023-12-28T04:03:11;99951.41;;;8.99;81.73
83363;BME280;73275;50.882;5.984;2023-12-28T04:05:39;99961.25;;;8.99;82.05
83363;BME280;73275;50.882;5.984;2023-12-28T04:08:12;99965.03;;;8.94;81.74
83363;BME280;73275;50.882;5.984;2023-12-28T04:10:43;99959.75;;;8.98;82.17
83363;BME280;73275;50.882;5.984;2023-12-28T04:13:11;99943.78;;;8.94;81.57
83363;BME280;73275;50.882;5.984;2023-12-28T04:15:42;99955.56;;;8.97;81.34
83363;BME280;73275;50.882;5.984;2023-12-28T04:18:13;99924.72;;;8.85;82.00
83363;BME280;73275;50.882;5.984;2023-12-28T04:20:42;99950.16;;;8.86;82.09
83363;BME280;73275;50.882;5.984;2023-12-28T04:23:10;99975.31;;;8.99;81.79
83363;BME280;73275;50.882;5.984;2023-12-28T04:25:41;99961.59;;;8.94;81.52
83363;BME280;73275;50.882;5.984;2023-12-28T04:28:12;99953.59;;;8.87;81.99
83363;BME280;73275;50.882;5.984;2023-12-28T04:30:42;99958.94;;;8.90;82.20
83363;BME280;73275;50.882;5.984;2023-12-28T04:33:18;99964.25;;;8.94;82.18
83363;BME280;73275;50.882;5.984;2023-12-28T04:35:51;99978.31;;;8.94;81.37
83363;BME280;73275;50.882;5.984;2023-12-28T04:38:17;99962.38;;;8.94;82.03
83363;BME280;73275;50.882;5.984;2023-12-28T04:40:50;99980.63;;;8.96;80.70
83363;BME280;73275;50.882;5.984;2023-12-28T04:43:18;99975.28;;;8.96;81.68
83363;BME280;73275;50.882;5.984;2023-12-28T04:45:49;99977.88;;;8.85;81.77
83363;BME280;73275;50.882;5.984;2023-12-28T04:48:15;99972.94;;;8.87;81.96
83363;BME280;73275;50.882;5.984;2023-12-28T04:50:47;99988.16;;;8.90;81.45
83363;BME280;73275;50.882;5.984;2023-12-28T04:53:21;99995.81;;;8.99;81.34
83363;BME280;73275;50.882;5.984;2023-12-28T04:55:57;99985.94;;;8.96;81.60
83363;BME280;73275;50.882;5.984;2023-12-28T04:58:28;99983.63;;;8.94;81.69
83363;BME280;73275;50.882;5.984;2023-12-28T05:00:56;99994.59;;;8.89;81.54
83363;BME280;73275;50.882;5.984;2023-12-28T05:03:28;100000.66;;;8.90;81.93
83363;BME280;73275;50.882;5.984;2023-12-28T05:06:03;100006.44;;;8.99;81.45
83363;BME280;73275;50.882;5.984;2023-12-28T05:08:41;100005.28;;;8.96;80.86
83363;BME280;73275;50.882;5.984;2023-12-28T05:11:12;100012.94;;;9.08;80.82
83363;BME280;73275;50.882;5.984;2023-12-28T05:13:54;100021.31;;;9.07;80.72
83363;BME280;73275;50.882;5.984;2023-12-28T05:16:30;100009.13;;;9.06;80.62
83363;BME280;73275;50.882;5.984;2023-12-28T05:18:56;100020.16;;;9.08;80.57
83363;BME280;73275;50.882;5.984;2023-12-28T05:21:32;100036.97;;;9.19;80.06
83363;BME280;73275;50.882;5.984;2023-12-28T05:24:00;100021.34;;;9.10;80.34
83363;BME280;73275;50.882;5.984;2023-12-28T05:26:30;100034.00;;;9.34;78.67
83363;BME280;73275;50.882;5.984;2023-12-28T05:29:15;100034.34;;;9.29;79.46
83363;BME280;73275;50.882;5.984;2023-12-28T05:31:40;100021.06;;;9.29;79.12
83363;BME280;73275;50.882;5.984;2023-12-28T05:34:09;100036.66;;;9.31;79.54
83363;BME280;73275;50.882;5.984;2023-12-28T05:36:56;100025.19;;;9.20;79.26
83363;BME280;73275;50.882;5.984;2023-12-28T05:39:24;100039.75;;;9.40;77.93
83363;BME280;73275;50.882;5.984;2023-12-28T05:41:56;100036.31;;;9.36;78.97
83363;BME280;73275;50.882;5.984;2023-12-28T05:44:22;100012.28;;;9.22;78.52
83363;BME280;73275;50.882;5.984;2023-12-28T05:47:05;100022.22;;;9.32;78.79
83363;BME280;73275;50.882;5.984;2023-12-28T05:49:35;100019.56;;;9.32;78.58
83363;BME280;73275;50.882;5.984;2023-12-28T05:52:06;100007.44;;;9.34;77.92
83363;BME280;73275;50.882;5.984;2023-12-28T05:54:34;100015.75;;;9.33;78.25
83363;BME280;73275;50.882;5.984;2023-12-28T05:57:10;100023.31;;;9.24;77.89
83363;BME280;73275;50.882;5.984;2023-12-28T05:59:41;100017.22;;;9.23;78.23
83363;BME280;73275;50.882;5.984;2023-12-28T06:02:09;100027.84;;;9.20;78.46
83363;BME280;73275;50.882;5.984;2023-12-28T06:04:41;100026.34;;;9.22;77.87
83363;BME280;73275;50.882;5.984;2023-12-28T06:07:09;100031.66;;;9.22;78.24
83363;BME280;73275;50.882;5.984;2023-12-28T06:09:36;100036.25;;;9.25;78.62
83363;BME280;73275;50.882;5.984;2023-12-28T06:12:09;100012.69;;;9.24;77.63
83363;BME280;73275;50.882;5.984;2023-12-28T06:14:38;100036.69;;;9.34;77.78
83363;BME280;73275;50.882;5.984;2023-12-28T06:17:25;100030.19;;;9.28;78.07
83363;BME280;73275;50.882;5.984;2023-12-28T06:19:54;100034.31;;;9.22;77.97
83363;BME280;73275;50.882;5.984;2023-12-28T06:22:19;100029.38;;;9.21;78.01
83363;BME280;73275;50.882;5.984;2023-12-28T06:25:12;100029.72;;;9.19;78.41
83363;BME280;73275;50.882;5.984;2023-12-28T06:27:41;100032.47;;;9.26;77.34
83363;BME280;73275;50.882;5.984;2023-12-28T06:30:10;100044.94;;;9.19;78.19
83363;BME280;73275;50.882;5.984;2023-12-28T06:32:35;100047.22;;;9.20;77.27
83363;BME280;73275;50.882;5.984;2023-12-28T06:35:07;100051.34;;;9.14;77.73
83363;BME280;73275;50.882;5.984;2023-12-28T06:37:35;100054.41;;;9.16;77.85
83363;BME280;73275;50.882;5.984;2023-12-28T06:40:01;100039.59;;;9.15;77.82
83363;BME280;73275;50.882;5.984;2023-12-28T06:42:38;100040.66;;;9.07;77.63
83363;BME280;73275;50.882;5.984;2023-12-28T06:45:06;100057.06;;;9.16;77.47
83363;BME280;73275;50.882;5.984;2023-12-28T06:47:40;100043.00;;;9.16;77.45
83363;BME280;73275;50.882;5.984;2023-12-28T06:50:11;100064.28;;;9.19;77.88
83363;BME280;73275;50.882;5.984;2023-12-28T06:52:48;100045.25;;;9.10;77.86
83363;BME280;73275;50.882;5.984;2023-12-28T06:55:29;100069.16;;;9.10;78.04
83363;BME280;73275;50.882;5.984;2023-12-28T06:58:06;100062.63;;;9.01;78.14
83363;BME280;73275;50.882;5.984;2023-12-28T07:00:38;100063.50;;;9.15;78.60
83363;BME280;73275;50.882;5.984;2023-12-28T07:03:06;100073.34;;;9.11;78.25
83363;BME280;73275;50.882;5.984;2023-12-28T07:05:40;100075.22;;;9.11;77.96
83363;BME280;73275;50.882;5.984;2023-12-28T07:08:28;100056.94;;;9.02;78.10
83363;BME280;73275;50.882;5.984;2023-12-28T07:11:04;100079.81;;;9.14;77.72
83363;BME280;73275;50.882;5.984;2023-12-28T07:13:37;100073.00;;;9.13;77.51
83363;BME280;73275;50.882;5.984;2023-12-28T07:16:12;100081.38;;;9.22;77.38
83363;BME280;73275;50.882;5.984;2023-12-28T07:18:54;100083.72;;;9.30;77.52
83363;BME280;73275;50.882;5.984;2023-12-28T07:21:34;100065.09;;;9.27;77.20
83363;BME280;73275;50.882;5.984;2023-12-28T07:24:19;100067.44;;;9.35;76.64
83363;BME280;73275;50.882;5.984;2023-12-28T07:26:54;100068.53;;;9.27;77.30
83363;BME280;73275;50.882;5.984;2023-12-28T07:32:49;100092.56;;;9.41;76.51
83363;BME280;73275;50.882;5.984;2023-12-28T07:35:25;100076.22;;;9.39;76.57
83363;BME280;73275;50.882;5.984;2023-12-28T07:37:51;100084.13;;;9.29;76.66
83363;BME280;73275;50.882;5.984;2023-12-28T07:40:27;100095.16;;;9.31;77.19
83363;BME280;73275;50.882;5.984;2023-12-28T07:42:56;100098.97;;;9.37;76.94
83363;BME280;73275;50.882;5.984;2023-12-28T07:46:02;100097.47;;;9.39;76.73
83363;BME280;73275;50.882;5.984;2023-12-28T07:48:40;100086.38;;;9.27;77.16
83363;BME280;73275;50.882;5.984;2023-12-28T07:51:15;100095.94;;;9.35;76.49
83363;BME280;73275;50.882;5.984;2023-12-28T07:53:44;100124.88;;;9.43;77.04
83363;BME280;73275;50.882;5.984;2023-12-28T07:56:10;100123.69;;;9.37;76.69
83363;BME280;73275;50.882;5.984;2023-12-28T07:58:36;100126.41;;;9.48;76.52
83363;BME280;73275;50.882;5.984;2023-12-28T08:04:11;100136.72;;;9.56;76.19
83363;BME280;73275;50.882;5.984;2023-12-28T08:06:54;100143.66;;;9.64;75.32
83363;BME280;73275;50.882;5.984;2023-12-28T08:09:33;100135.19;;;9.52;75.50
83363;BME280;73275;50.882;5.984;2023-12-28T08:12:25;100127.22;;;9.55;74.82
83363;BME280;73275;50.882;5.984;2023-12-28T08:15:03;100136.00;;;9.56;74.66
83363;BME280;73275;50.882;5.984;2023-12-28T08:17:47;100121.94;;;9.62;74.98
83363;BME280;73275;50.882;5.984;2023-12-28T08:20:35;100142.16;;;9.70;75.34
83363;BME280;73275;50.882;5.984;2023-12-28T08:23:16;100121.84;;;9.45;75.72
83363;BME280;73275;50.882;5.984;2023-12-28T08:25:45;100140.91;;;9.54;74.58
83363;BME280;73275;50.882;5.984;2023-12-28T08:28:19;100143.19;;;9.55;75.05
83363;BME280;73275;50.882;5.984;2023-12-28T08:30:57;100159.16;;;9.59;74.83
83363;BME280;73275;50.882;5.984;2023-12-28T08:33:31;100167.94;;;9.59;75.43
83363;BME280;73275;50.882;5.984;2023-12-28T08:36:05;100170.22;;;9.61;74.54
83363;BME280;73275;50.882;5.984;2023-12-28T08:38:41;100177.88;;;9.69;74.26
83363;BME280;73275;50.882;5.984;2023-12-28T08:41:07;100184.34;;;9.68;74.67
83363;BME280;73275;50.882;5.984;2023-12-28T08:43:35;100180.88;;;9.64;74.96
83363;BME280;73275;50.882;5.984;2023-12-28T08:46:01;100178.59;;;9.63;74.93
83363;BME280;73275;50.882;5.984;2023-12-28T08:48:27;100175.94;;;9.66;74.94
83363;BME280;73275;50.882;5.984;2023-12-28T08:50:52;100173.28;;;9.66;75.58
83363;BME280;73275;50.882;5.984;2023-12-28T08:53:17;100166.81;;;9.64;75.24
83363;BME280;73275;50.882;5.984;2023-12-28T08:55:43;100183.22;;;9.69;74.86
83363;BME280;73275;50.882;5.984;2023-12-28T08:58:08;100163.09;;;9.72;75.05
83363;BME280;73275;50.882;5.984;2023-12-28T09:00:33;100168.00;;;9.70;74.71
83363;BME280;73275;50.882;5.984;2023-12-28T09:02:59;100182.44;;;9.69;74.76
83363;BME280;73275;50.882;5.984;2023-12-28T09:05:24;100174.03;;;9.60;75.17
83363;BME280;73275;50.882;5.984;2023-12-28T09:07:50;100171.41;;;9.67;75.64
83363;BME280;73275;50.882;5.984;2023-12-28T09:10:15;100172.16;;;9.67;75.21
83363;BME280;73275;50.882;5.984;2023-12-28T09:12:41;100172.97;;;9.75;74.88
83363;BME280;73275;50.882;5.984;2023-12-28T09:15:07;100166.22;;;9.84;74.38
83363;BME280;73275;50.882;5.984;2023-12-28T09:17:34;100180.69;;;9.87;74.52
83363;BME280;73275;50.882;5.984;2023-12-28T09:20:00;100189.56;;;10.05;74.04
83363;BME280;73275;50.882;5.984;2023-12-28T09:22:26;100178.19;;;10.11;73.94
83363;BME280;73275;50.882;5.984;2023-12-28T09:24:52;100196.88;;;10.22;72.86
83363;BME280;73275;50.882;5.984;2023-12-28T09:27:17;100186.66;;;10.27;73.18
83363;BME280;73275;50.882;5.984;2023-12-28T09:29:43;100185.97;;;10.41;72.16
83363;BME280;73275;50.882;5.984;2023-12-28T09:32:08;100181.44;;;10.48;71.91
83363;BME280;73275;50.882;5.984;2023-12-28T09:34:33;100174.56;;;10.47;71.89
83363;BME280;73275;50.882;5.984;2023-12-28T09:36:59;100180.25;;;10.42;72.23
83363;BME280;73275;50.882;5.984;2023-12-28T09:39:24;100179.50;;;10.45;72.14
83363;BME280;73275;50.882;5.984;2023-12-28T09:41:55;100184.81;;;10.42;72.23
83363;BME280;73275;50.882;5.984;2023-12-28T09:44:24;100176.47;;;10.40;71.94
83363;BME280;73275;50.882;5.984;2023-12-28T09:46:50;100174.53;;;10.40;72.45
83363;BME280;73275;50.882;5.984;2023-12-28T09:49:20;100170.72;;;10.38;71.99
83363;BME280;73275;50.882;5.984;2023-12-28T09:51:47;100157.81;;;10.40;72.06
83363;BME280;73275;50.882;5.984;2023-12-28T09:54:12;100167.31;;;10.41;71.80
83363;BME280;73275;50.882;5.984;2023-12-28T09:56:38;100165.81;;;10.47;72.12
83363;BME280;73275;50.882;5.984;2023-12-28T09:59:06;100166.19;;;10.45;71.85
83363;BME280;73275;50.882;5.984;2023-12-28T10:01:32;100165.81;;;10.47;70.94
83363;BME280;73275;50.882;5.984;2023-12-28T10:03:59;100149.47;;;10.52;71.28
83363;BME280;73275;50.882;5.984;2023-12-28T10:06:24;100167.38;;;10.55;71.44
83363;BME280;73275;50.882;5.984;2023-12-28T10:08:50;100153.38;;;10.72;69.47
83363;BME280;73275;50.882;5.984;2023-12-28T10:11:17;100185.41;;;11.00;69.28
83363;BME280;73275;50.882;5.984;2023-12-28T10:13:42;100166.75;;;10.96;68.56
83363;BME280;73275;50.882;5.984;2023-12-28T10:16:12;100172.47;;;11.02;68.21
83363;BME280;73275;50.882;5.984;2023-12-28T10:18:44;100176.63;;;10.89;69.01
83363;BME280;73275;50.882;5.984;2023-12-28T10:21:11;100177.38;;;10.82;68.88
83363;BME280;73275;50.882;5.984;2023-12-28T10:23:37;100169.00;;;10.80;68.35
83363;BME280;73275;50.882;5.984;2023-12-28T10:26:04;100180.81;;;10.86;68.77
83363;BME280;73275;50.882;5.984;2023-12-28T10:28:34;100177.00;;;10.87;68.98
83363;BME280;73275;50.882;5.984;2023-12-28T10:31:00;100189.53;;;10.83;68.40
83363;BME280;73275;50.882;5.984;2023-12-28T10:33:26;100193.72;;;10.81;68.78
83363;BME280;73275;50.882;5.984;2023-12-28T10:35:51;100183.47;;;10.86;68.22
83363;BME280;73275;50.882;5.984;2023-12-28T10:38:18;100175.84;;;10.81;68.89
83363;BME280;73275;50.882;5.984;2023-12-28T10:40:44;100182.72;;;10.89;68.98
83363;BME280;73275;50.882;5.984;2023-12-28T10:43:15;100185.00;;;10.94;68.91
83363;BME280;73275;50.882;5.984;2023-12-28T10:45:41;100175.50;;;10.97;68.19
83363;BME280;73275;50.882;5.984;2023-12-28T10:48:12;100183.91;;;11.06;68.40
83363;BME280;73275;50.882;5.984;2023-12-28T10:50:43;100183.50;;;11.00;68.11
83363;BME280;73275;50.882;5.984;2023-12-28T10:53:37;100186.19;;;11.07;68.79
83363;BME280;73275;50.882;5.984;2023-12-28T11:01:46;100185.00;;;10.94;69.09
83363;BME280;73275;50.882;5.984;2023-12-28T11:04:34;100173.59;;;11.04;69.11
83363;BME280;73275;50.882;5.984;2023-12-28T11:07:05;100159.91;;;11.16;68.15
83363;BME280;73275;50.882;5.984;2023-12-28T11:09:34;100146.59;;;11.27;67.36
83363;BME280;73275;50.882;5.984;2023-12-28T11:12:02;100155.34;;;11.24;67.58
83363;BME280;73275;50.882;5.984;2023-12-28T11:14:30;100166.44;;;11.47;66.19
83363;BME280;73275;50.882;5.984;2023-12-28T11:16:58;100152.72;;;11.59;66.53
83363;BME280;73275;50.882;5.984;2023-12-28T11:19:26;100144.28;;;11.57;66.27
83363;BME280;73275;50.882;5.984;2023-12-28T11:21:52;100166.81;;;11.45;66.32
83363;BME280;73275;50.882;5.984;2023-12-28T11:24:19;100164.13;;;11.45;66.49
83363;BME280;73275;50.882;5.984;2023-12-28T11:26:44;100161.09;;;11.50;66.19
83363;BME280;73275;50.882;5.984;2023-12-28T11:29:18;100166.44;;;11.47;67.48
83363;BME280;73275;50.882;5.984;2023-12-28T11:31:52;100142.06;;;11.59;66.50
83363;BME280;73275;50.882;5.984;2023-12-28T11:34:18;100151.59;;;11.60;66.10
83363;BME280;73275;50.882;5.984;2023-12-28T11:36:48;100148.50;;;11.47;66.01
83363;BME280;73275;50.882;5.984;2023-12-28T11:39:24;100155.34;;;11.48;66.26
83363;BME280;73275;50.882;5.984;2023-12-28T11:42:00;100145.44;;;11.35;66.40
83363;BME280;73275;50.882;5.984;2023-12-28T11:44:29;100146.59;;;11.34;65.92
83363;BME280;73275;50.882;5.984;2023-12-28T11:46:54;100155.00;;;11.43;66.24
83363;BME280;73275;50.882;5.984;2023-12-28T11:49:25;100147.34;;;11.41;66.46
83363;BME280;73275;50.882;5.984;2023-12-28T11:51:57;100135.16;;;11.54;65.64
83363;BME280;73275;50.882;5.984;2023-12-28T11:54:24;100135.16;;;11.47;66.25
83363;BME280;73275;50.882;5.984;2023-12-28T11:56:52;100132.09;;;11.56;65.96
83363;BME280;73275;50.882;5.984;2023-12-28T11:59:20;100129.47;;;11.70;65.29
83363;BME280;73275;50.882;5.984;2023-12-28T12:01:51;100118.03;;;11.62;65.07
83363;BME280;73275;50.882;5.984;2023-12-28T12:04:20;100122.19;;;11.70;64.87
83363;BME280;73275;50.882;5.984;2023-12-28T12:06:46;100127.16;;;11.68;65.53
83363;BME280;73275;50.882;5.984;2023-12-28T12:09:13;100115.38;;;11.62;65.38
83363;BME280;73275;50.882;5.984;2023-12-28T12:11:39;100100.50;;;11.65;65.56
83363;BME280;73275;50.882;5.984;2023-12-28T12:14:11;100110.75;;;11.77;65.15
83363;BME280;73275;50.882;5.984;2023-12-28T12:16:37;100119.13;;;11.93;64.32
83363;BME280;73275;50.882;5.984;2023-12-28T12:19:05;100124.09;;;11.87;64.91
83363;BME280;73275;50.882;5.984;2023-12-28T12:21:34;100108.06;;;11.80;65.27
83363;BME280;73275;50.882;5.984;2023-12-28T12:24:00;100098.56;;;11.79;64.70
83363;BME280;73275;50.882;5.984;2023-12-28T12:26:27;100094.38;;;11.71;64.50
83363;BME280;73275;50.882;5.984;2023-12-28T12:28:52;100105.44;;;11.59;65.66
83363;BME280;73275;50.882;5.984;2023-12-28T12:31:18;100085.59;;;11.71;65.09
83363;BME280;73275;50.882;5.984;2023-12-28T12:33:44;100098.59;;;11.69;65.13
83363;BME280;73275;50.882;5.984;2023-12-28T12:36:09;100094.00;;;11.69;64.43
83363;BME280;73275;50.882;5.984;2023-12-28T12:38:35;100089.78;;;11.72;64.41
83363;BME280;73275;50.882;5.984;2023-12-28T12:41:01;100081.44;;;11.70;63.98
83363;BME280;73275;50.882;5.984;2023-12-28T12:43:26;100082.16;;;11.70;64.86
83363;BME280;73275;50.882;5.984;2023-12-28T12:45:52;100069.25;;;11.65;65.28
83363;BME280;73275;50.882;5.984;2023-12-28T12:48:18;100079.88;;;11.58;64.35
83363;BME280;73275;50.882;5.984;2023-12-28T12:50:44;100073.03;;;11.64;63.85
83363;BME280;73275;50.882;5.984;2023-12-28T12:53:09;100077.59;;;11.71;63.89
83363;BME280;73275;50.882;5.984;2023-12-28T12:55:36;100072.25;;;11.74;63.21
83363;BME280;73275;50.882;5.984;2023-12-28T12:58:04;100059.69;;;11.61;63.34
83363;BME280;73275;50.882;5.984;2023-12-28T13:00:30;100067.69;;;11.54;62.83
83363;BME280;73275;50.882;5.984;2023-12-28T13:02:59;100065.03;;;11.50;62.96
83363;BME280;73275;50.882;5.984;2023-12-28T13:05:24;100068.84;;;11.53;63.23
83363;BME280;73275;50.882;5.984;2023-12-28T13:07:51;100077.22;;;11.51;63.94
83363;BME280;73275;50.882;5.984;2023-12-28T13:10:16;100080.25;;;11.57;63.29
83363;BME280;73275;50.882;5.984;2023-12-28T13:12:41;100084.09;;;11.59;63.44
83363;BME280;73275;50.882;5.984;2023-12-28T13:15:07;100084.47;;;11.58;63.47
83363;BME280;73275;50.882;5.984;2023-12-28T13:17:35;100097.03;;;11.57;63.52
83363;BME280;73275;50.882;5.984;2023-12-28T13:20:01;100091.72;;;11.47;63.96
83363;BME280;73275;50.882;5.984;2023-12-28T13:22:26;100074.19;;;11.42;64.21
83363;BME280;73275;50.882;5.984;2023-12-28T13:24:52;100077.25;;;11.37;63.99